CZST

Stewart Airport

Stewart, , Canada
METAR CZST 241400Z 00000KT 15SM BKN085 12/09 A2996 RMK AC7 SLP148
Observed Flight Rules
Jun-24 @ 14:00 UTC (an hour ago) Visual Flight Rules
Visibility Clouds
15 miles
  • Broken at 8,500' AGL
Temperatures Readings
Current 12°C / 54°F
Dewpoint 9°C / 48°F
Humidity 82%
Altimeter 29.96" Hg
Pressure 1014.8 hPa
Elevation 7
METAR CZST 241400Z 00000KT 15SM BKN085 12/09 A2996 RMK AC7 SLP148
Observed Flight Rules
Jun-24 @ 14:00 UTC
(an hour ago)
VFR
Clouds
  • Broken at 8,500' AGL
Temperature Dewpoint
12°C / 54°F 9°C / 48°F
Humidity Altimeter Pressure
82% 29.96" Hg 1014.8 hPa